Time;durP1;ratioP1;P1;durP2;ratioP2;P2;SDS_P1;SDS_P2;PMS_P1;PMS_P2;Temp;Humidity;BMP_temperature;BMP_pressure;BME280_temperature;BME280_humidity;BME280_pressure;Samples;Min_cycle;Max_cycle;Signal;HPM_P1;HPM_P2
2023/01/09 00:01:19;;;;;;;4.57;1.40;;;9.20;99.90;;;;;;5021481;28;20036;-85
2023/01/09 00:03:45;;;;;;;4.43;1.40;;;9.20;99.90;;;;;;5038363;28;20431;-85
2023/01/09 00:06:10;;;;;;;2.60;1.00;;;9.10;99.90;;;;;;5006200;28;20029;-86
2023/01/09 00:08:36;;;;;;;2.70;0.93;;;9.10;99.90;;;;;;5005566;28;20032;-85
2023/01/09 00:11:03;;;;;;;3.25;1.10;;;9.10;99.90;;;;;;5037990;28;20021;-85
2023/01/09 00:13:28;;;;;;;6.13;1.23;;;9.10;99.90;;;;;;5037580;28;20021;-85
2023/01/09 00:15:54;;;;;;;2.05;0.77;;;9.00;99.90;;;;;;5005114;28;20033;-85
2023/01/09 00:18:19;;;;;;;2.55;0.85;;;9.00;99.90;;;;;;5037396;28;20033;-85
2023/01/09 00:20:45;;;;;;;1.90;0.75;;;9.00;99.90;;;;;;5021232;28;20028;-85
2023/01/09 00:23:11;;;;;;;2.10;0.77;;;9.00;99.90;;;;;;5037614;28;20483;-85
2023/01/09 00:25:36;;;;;;;2.47;0.65;;;8.90;99.90;;;;;;5004305;28;20017;-85
2023/01/09 00:28:02;;;;;;;1.60;0.70;;;8.90;99.90;;;;;;5004987;28;20053;-85
2023/01/09 00:30:28;;;;;;;1.52;0.55;;;8.90;99.90;;;;;;5037510;28;20067;-85
2023/01/09 00:32:54;;;;;;;2.50;0.95;;;8.80;99.90;;;;;;5037560;28;20029;-85
2023/01/09 00:35:22;;;;;;;2.45;0.75;;;8.80;99.90;;;;;;5020759;28;20083;-85
2023/01/09 00:37:48;;;;;;;1.35;0.50;;;8.70;99.90;;;;;;5020737;28;20025;-85
2023/01/09 00:40:15;;;;;;;1.95;0.47;;;8.70;99.90;;;;;;5037467;28;20048;-85
2023/01/09 00:42:45;;;;;;;2.20;0.40;;;8.70;99.90;;;;;;5020619;28;20469;-84
2023/01/09 00:45:27;;;;;;;3.92;0.63;;;8.60;99.90;;;;;;5036973;28;20032;-85
2023/01/09 00:47:54;;;;;;;1.75;0.60;;;8.60;99.90;;;;;;5037263;28;20052;-85
2023/01/09 00:50:27;;;;;;;2.60;0.60;;;8.60;99.90;;;;;;5037005;28;20143;-85
2023/01/09 00:52:55;;;;;;;1.05;0.40;;;8.50;99.90;;;;;;5037148;28;20021;-84
2023/01/09 00:55:20;;;;;;;2.67;0.60;;;8.50;99.90;;;;;;5054476;28;20067;-85
2023/01/09 00:57:46;;;;;;;2.78;0.65;;;8.50;99.90;;;;;;5036643;28;20436;-85
2023/01/09 01:00:13;;;;;;;1.17;0.73;;;8.50;99.90;;;;;;5020613;28;20040;-85
2023/01/09 01:02:39;;;;;;;1.85;0.60;;;8.50;99.90;;;;;;5036156;28;20033;-85
2023/01/09 01:07:50;;;;;;;1.35;0.63;;;8.40;99.90;;;;;;5039693;28;20044;-84
2023/01/09 01:10:20;;;;;;;1.10;0.70;;;8.30;99.90;;;;;;5004326;28;20036;-84
2023/01/09 01:12:47;;;;;;;1.88;0.70;;;8.30;99.90;;;;;;5036588;28;20587;-84
2023/01/09 01:15:13;;;;;;;0.77;0.43;;;8.30;99.90;;;;;;5036692;28;20021;-84
2023/01/09 01:17:40;;;;;;;1.00;0.43;;;8.20;99.90;;;;;;5020265;28;20029;-84
2023/01/09 01:20:09;;;;;;;0.82;0.60;;;8.20;99.90;;;;;;5003817;28;20032;-83
2023/01/09 01:22:35;;;;;;;1.95;0.80;;;8.10;99.90;;;;;;5036480;28;20024;-84
2023/01/09 01:25:02;;;;;;;2.20;0.90;;;8.10;99.90;;;;;;5003512;28;20461;-84
2023/01/09 01:27:27;;;;;;;1.75;0.90;;;8.00;99.90;;;;;;5020328;28;20457;-84
2023/01/09 01:29:53;;;;;;;1.95;0.95;;;8.00;99.90;;;;;;5004563;28;20036;-84
2023/01/09 01:32:19;;;;;;;2.15;0.90;;;8.00;99.90;;;;;;5039818;28;20016;-83
2023/01/09 01:34:44;;;;;;;3.70;1.30;;;8.00;99.90;;;;;;5027992;28;20029;-85
2023/01/09 01:37:10;;;;;;;1.65;0.70;;;8.00;99.90;;;;;;5056816;28;20041;-84
2023/01/09 01:39:36;;;;;;;2.28;1.23;;;8.00;99.90;;;;;;5004054;28;20037;-84
2023/01/09 01:42:05;;;;;;;1.95;1.65;;;8.00;99.90;;;;;;5036798;28;20113;-84
2023/01/09 01:45:08;;;;;;;2.72;1.00;;;7.90;99.90;;;;;;5036086;28;20021;-84
2023/01/09 01:47:39;;;;;;;2.42;1.10;;;7.90;99.90;;;;;;5053818;28;20028;-84
2023/01/09 01:50:11;;;;;;;;;;;7.80;99.90;;;;;;5036598;28;20061;-84
2023/01/09 01:52:37;;;;;;;4.13;0.98;;;7.80;99.90;;;;;;5035987;28;19912;-85
2023/01/09 01:55:07;;;;;;;5.68;1.40;;;7.80;99.90;;;;;;5020041;28;20037;-84
2023/01/09 01:57:34;;;;;;;3.25;1.40;;;7.80;99.90;;;;;;5036072;28;20080;-85
2023/01/09 02:00:02;;;;;;;2.75;1.20;;;7.80;99.90;;;;;;5036227;28;20580;-84
2023/01/09 02:02:29;;;;;;;3.35;1.77;;;7.70;99.90;;;;;;5019697;28;20033;-83
2023/01/09 02:04:57;;;;;;;6.18;1.48;;;7.70;99.90;;;;;;5019607;28;20032;-83
2023/01/09 02:07:23;;;;;;;3.70;1.20;;;7.70;99.90;;;;;;5019460;28;20036;-84
2023/01/09 02:09:49;;;;;;;2.10;1.10;;;7.70;99.90;;;;;;5035914;28;20033;-83
2023/01/09 02:12:26;;;;;;;3.30;1.35;;;7.70;99.90;;;;;;5036660;28;20085;-84
2023/01/09 02:15:05;;;;;;;2.35;1.20;;;7.60;99.90;;;;;;5039979;28;20048;-84
2023/01/09 02:17:56;;;;;;;3.55;1.08;;;7.60;99.90;;;;;;5039575;28;20099;-84
2023/01/09 02:20:37;;;;;;;2.70;1.00;;;7.60;99.90;;;;;;5057473;28;20037;-84
2023/01/09 02:23:34;;;;;;;2.67;1.25;;;7.60;99.90;;;;;;5057277;28;20031;-84
2023/01/09 02:26:21;;;;;;;5.70;1.30;;;7.60;99.90;;;;;;5039296;28;20025;-83
2023/01/09 02:29:19;;;;;;;4.57;1.20;;;7.60;99.90;;;;;;5039372;28;20464;-84
2023/01/09 02:32:17;;;;;;;2.85;1.10;;;7.50;99.90;;;;;;5039662;28;20480;-83
2023/01/09 02:34:58;;;;;;;2.03;0.95;;;7.50;99.90;;;;;;4969836;28;20070;-84
2023/01/09 02:37:23;;;;;;;2.58;0.98;;;7.50;99.90;;;;;;5057498;28;20456;-84
2023/01/09 02:39:54;;;;;;;2.35;1.02;;;7.50;99.90;;;;;;5039085;28;20060;-84
2023/01/09 02:42:21;;;;;;;;;;;7.50;99.90;;;;;;5041081;28;20037;-83
2023/01/09 02:44:47;;;;;;;4.80;1.13;;;7.40;99.90;;;;;;5040712;28;19912;-84
2023/01/09 02:47:19;;;;;;;3.30;1.30;;;7.40;99.90;;;;;;5042692;28;20025;-83
2023/01/09 02:49:54;;;;;;;3.90;1.40;;;7.40;99.90;;;;;;5062953;28;20039;-84
2023/01/09 02:53:15;;;;;;;7.05;1.45;;;7.40;99.90;;;;;;5056110;28;20037;-83
2023/01/09 02:56:16;;;;;;;3.50;1.40;;;7.30;99.90;;;;;;5002356;28;20174;-84
2023/01/09 02:59:20;;;;;;;4.20;1.40;;;7.30;99.90;;;;;;5036188;28;20096;-84
2023/01/09 03:01:52;;;;;;;2.95;1.17;;;7.20;99.90;;;;;;4964744;28;20042;-84
2023/01/09 03:04:56;;;;;;;4.60;1.40;;;7.20;99.90;;;;;;5026312;28;20033;-83
2023/01/09 03:07:33;;;;;;;3.65;1.55;;;7.20;99.90;;;;;;5039122;28;20025;-84
2023/01/09 03:10:18;;;;;;;4.55;1.45;;;7.20;99.90;;;;;;5039548;28;20021;-84
2023/01/09 03:12:46;;;;;;;4.63;1.40;;;7.10;99.90;;;;;;5039177;28;20477;-84
2023/01/09 03:15:14;;;;;;;6.05;1.52;;;7.20;99.90;;;;;;5039593;28;20029;-84
2023/01/09 03:17:44;;;;;;;3.90;1.60;;;7.10;99.90;;;;;;5038784;28;20437;-84
2023/01/09 03:20:12;;;;;;;8.15;2.95;;;7.10;99.90;;;;;;5038416;28;20116;-84
2023/01/09 03:22:59;;;;;;;5.65;1.40;;;7.10;99.90;;;;;;5056556;28;20037;-85
2023/01/09 03:25:27;;;;;;;10.45;1.83;;;7.10;99.90;;;;;;5037270;28;20025;-83
2023/01/09 03:27:58;;;;;;;3.20;1.40;;;7.00;99.90;;;;;;5022078;28;20036;-85
2023/01/09 03:30:25;;;;;;;;;;;7.10;99.90;;;;;;5056608;28;20025;-84
2023/01/09 03:32:50;;;;;;;5.13;1.42;;;7.00;99.90;;;;;;5056096;28;20449;-85
2023/01/09 03:35:19;;;;;;;5.45;1.50;;;7.00;99.90;;;;;;5021750;28;20029;-84
2023/01/09 03:37:44;;;;;;;4.65;1.58;;;7.00;99.90;;;;;;5005994;28;20029;-85
2023/01/09 03:40:10;;;;;;;3.60;1.50;;;7.00;99.90;;;;;;5021732;28;20123;-85
2023/01/09 03:42:36;;;;;;;3.05;1.42;;;7.00;99.90;;;;;;5021796;28;20032;-85
2023/01/09 03:45:02;;;;;;;7.15;1.60;;;6.90;99.90;;;;;;5021960;28;20353;-84
2023/01/09 03:47:28;;;;;;;4.00;1.42;;;7.00;99.90;;;;;;5021940;28;20025;-84
2023/01/09 03:49:53;;;;;;;4.43;1.52;;;6.90;99.90;;;;;;5038728;28;20029;-85
2023/01/09 03:52:19;;;;;;;7.85;1.70;;;6.90;99.90;;;;;;5038597;28;20032;-84
2023/01/09 03:54:45;;;;;;;5.45;1.20;;;6.90;99.90;;;;;;5038183;28;20363;-85
2023/01/09 03:57:10;;;;;;;7.18;1.65;;;6.90;99.90;;;;;;5005659;28;20409;-84
2023/01/09 03:59:36;;;;;;;6.40;1.50;;;6.90;99.90;;;;;;5021656;28;20029;-84
2023/01/09 04:02:02;;;;;;;6.93;1.35;;;6.90;99.90;;;;;;5021770;28;20453;-85
2023/01/09 04:04:28;;;;;;;7.50;1.73;;;6.80;99.90;;;;;;5053499;28;20025;-85
2023/01/09 04:06:53;;;;;;;5.05;1.70;;;6.80;99.90;;;;;;5041918;28;20029;-85
2023/01/09 04:09:19;;;;;;;6.60;1.65;;;6.80;99.90;;;;;;5040048;28;20033;-85
2023/01/09 04:11:45;;;;;;;5.60;1.50;;;6.70;99.90;;;;;;5022231;28;20053;-85
2023/01/09 04:14:10;;;;;;;7.85;1.70;;;6.70;99.90;;;;;;5005267;28;20033;-85
2023/01/09 04:16:36;;;;;;;8.20;1.52;;;6.70;99.90;;;;;;5022219;28;20447;-85
2023/01/09 04:19:02;;;;;;;5.65;1.40;;;6.70;99.90;;;;;;5021340;28;20607;-84
2023/01/09 04:21:27;;;;;;;6.85;1.70;;;6.60;99.90;;;;;;5005695;28;20029;-85
2023/01/09 04:23:53;;;;;;;5.93;2.00;;;6.60;99.90;;;;;;5021426;28;20029;-85
2023/01/09 04:26:19;;;;;;;4.70;1.50;;;6.60;99.90;;;;;;5037860;28;20033;-85
2023/01/09 04:28:44;;;;;;;6.30;1.85;;;6.60;99.90;;;;;;5021097;28;20032;-85
2023/01/09 04:31:10;;;;;;;6.97;1.70;;;6.60;99.90;;;;;;5037189;28;20031;-84
2023/01/09 04:33:36;;;;;;;10.23;2.22;;;6.50;99.90;;;;;;5037749;28;20036;-84
2023/01/09 04:36:01;;;;;;;5.25;1.63;;;6.50;99.90;;;;;;5003970;28;20079;-84
2023/01/09 04:38:27;;;;;;;8.13;2.17;;;6.50;99.90;;;;;;5020857;28;20033;-84
2023/01/09 04:40:53;;;;;;;8.68;2.72;;;6.50;99.90;;;;;;5020966;28;20032;-84
2023/01/09 04:43:19;;;;;;;7.15;1.95;;;6.50;99.90;;;;;;5055090;28;20025;-84
2023/01/09 04:45:44;;;;;;;6.70;2.20;;;6.50;99.90;;;;;;5020700;28;20025;-84
2023/01/09 04:48:10;;;;;;;7.43;2.40;;;6.50;99.90;;;;;;5021104;28;20037;-84
2023/01/09 04:50:36;;;;;;;5.55;1.92;;;6.50;99.90;;;;;;5020591;28;20167;-84
2023/01/09 04:53:02;;;;;;;7.72;2.55;;;6.50;99.90;;;;;;5020189;28;20397;-83
2023/01/09 04:55:27;;;;;;;5.78;2.22;;;6.50;99.90;;;;;;5020494;28;20056;-84
2023/01/09 04:57:53;;;;;;;9.32;2.92;;;6.50;99.90;;;;;;5020255;28;20029;-84
2023/01/09 05:00:19;;;;;;;6.25;2.10;;;6.50;99.90;;;;;;5020347;28;20033;-85
2023/01/09 05:02:44;;;;;;;5.80;2.25;;;6.60;99.90;;;;;;5020357;28;20063;-84
2023/01/09 05:05:11;;;;;;;7.43;2.13;;;6.60;99.90;;;;;;5021310;28;20102;-84
2023/01/09 05:07:37;;;;;;;7.95;2.65;;;6.60;99.90;;;;;;5049236;28;20032;-83
2023/01/09 05:10:04;;;;;;;7.57;2.17;;;6.60;99.90;;;;;;5046410;28;20037;-83
2023/01/09 05:12:30;;;;;;;5.10;1.63;;;6.60;99.90;;;;;;5074251;28;20083;-84
2023/01/09 05:14:56;;;;;;;7.22;1.75;;;6.60;99.90;;;;;;5056840;28;20464;-84
2023/01/09 05:17:22;;;;;;;6.22;1.80;;;6.70;99.90;;;;;;5056652;28;20081;-84
2023/01/09 05:19:48;;;;;;;4.38;1.65;;;6.60;99.90;;;;;;5056427;28;20373;-86
2023/01/09 05:22:14;;;;;;;8.55;1.85;;;6.60;99.90;;;;;;5073229;28;20036;-84
2023/01/09 05:24:39;;;;;;;5.13;1.60;;;6.70;99.90;;;;;;5074574;28;20177;-84
2023/01/09 05:27:08;;;;;;;6.45;1.83;;;6.70;99.90;;;;;;5072922;28;20461;-84
2023/01/09 05:29:33;;;;;;;4.75;1.67;;;6.70;99.90;;;;;;5056911;28;20477;-84
2023/01/09 05:31:59;;;;;;;5.68;1.55;;;6.70;99.90;;;;;;5039732;28;20028;-84
2023/01/09 05:34:25;;;;;;;6.20;1.50;;;6.60;99.90;;;;;;5056329;28;20483;-84
2023/01/09 05:36:50;;;;;;;8.00;2.00;;;6.70;99.90;;;;;;5072419;28;20021;-85
2023/01/09 05:39:16;;;;;;;5.03;1.88;;;6.70;99.90;;;;;;5055512;28;20067;-85
2023/01/09 05:41:42;;;;;;;4.50;1.40;;;6.70;99.90;;;;;;5055762;28;20051;-84
2023/01/09 05:44:08;;;;;;;5.70;1.60;;;6.60;99.90;;;;;;5055648;28;20028;-85
2023/01/09 05:46:33;;;;;;;8.13;1.52;;;6.70;99.90;;;;;;5072311;28;20086;-83
2023/01/09 05:48:59;;;;;;;9.32;1.63;;;6.70;99.90;;;;;;5074564;28;20059;-84
2023/01/09 05:51:24;;;;;;;5.57;1.90;;;6.70;99.90;;;;;;5076714;28;20048;-85
2023/01/09 05:53:50;;;;;;;6.88;1.60;;;6.70;99.90;;;;;;5059974;28;20035;-84
2023/01/09 05:56:16;;;;;;;7.47;1.60;;;6.60;99.90;;;;;;5060263;28;20032;-84
2023/01/09 05:58:41;;;;;;;7.45;1.45;;;6.60;99.90;;;;;;5059937;28;20089;-84
2023/01/09 06:01:07;;;;;;;6.78;2.05;;;6.60;99.90;;;;;;5059569;28;20233;-85
2023/01/09 06:03:33;;;;;;;5.47;1.58;;;6.60;99.90;;;;;;5060322;28;20055;-84
2023/01/09 06:05:59;;;;;;;9.02;1.90;;;6.60;99.90;;;;;;5053674;28;20021;-85
2023/01/09 06:08:25;;;;;;;9.63;1.58;;;6.60;99.90;;;;;;5037164;28;20021;-84
2023/01/09 06:10:50;;;;;;;8.85;1.60;;;6.60;99.90;;;;;;5032783;28;20058;-83
2023/01/09 06:13:16;;;;;;;11.00;1.80;;;6.60;99.90;;;;;;5026918;28;20029;-83
2023/01/09 06:15:42;;;;;;;6.18;1.92;;;6.60;99.90;;;;;;5043663;28;20035;-83
2023/01/09 06:18:07;;;;;;;5.75;2.33;;;6.60;99.90;;;;;;5059861;28;20032;-83
2023/01/09 06:20:33;;;;;;;10.55;1.58;;;6.70;99.90;;;;;;5026923;28;20079;-84
2023/01/09 06:22:59;;;;;;;10.23;1.60;;;6.70;99.90;;;;;;5060874;28;20032;-84
2023/01/09 06:25:25;;;;;;;8.00;1.60;;;6.70;99.90;;;;;;5044189;28;20029;-83
2023/01/09 06:27:51;;;;;;;11.60;2.03;;;6.70;99.90;;;;;;5068667;28;20058;-81
2023/01/09 06:30:22;;;;;;;9.00;1.48;;;6.80;99.90;;;;;;5080412;28;20033;-83
2023/01/09 06:32:48;;;;;;;7.18;1.35;;;6.90;99.90;;;;;;5054938;28;20029;-83
2023/01/09 06:35:19;;;;;;;7.88;1.80;;;6.90;99.90;;;;;;5051292;28;20100;-84
2023/01/09 06:37:48;;;;;;;8.50;1.30;;;6.90;99.90;;;;;;5083138;28;20078;-83
2023/01/09 06:40:14;;;;;;;5.30;1.30;;;7.00;99.90;;;;;;5084272;28;20036;-84
2023/01/09 06:42:44;;;;;;;10.68;2.25;;;7.00;99.90;;;;;;5082337;28;20031;-83
2023/01/09 06:45:11;;;;;;;8.25;1.60;;;7.00;99.90;;;;;;5069203;28;20032;-84
2023/01/09 06:47:38;;;;;;;7.78;1.48;;;7.10;99.90;;;;;;5060057;28;20016;-83
2023/01/09 06:50:04;;;;;;;10.07;1.48;;;7.10;99.90;;;;;;5077165;28;20056;-84
2023/01/09 06:52:29;;;;;;;4.97;1.65;;;7.10;99.90;;;;;;5043058;28;20099;-85
2023/01/09 06:54:55;;;;;;;6.03;1.65;;;7.10;99.90;;;;;;5059624;28;20119;-84
2023/01/09 06:57:21;;;;;;;7.30;1.98;;;7.20;99.90;;;;;;5025804;28;20373;-85
2023/01/09 06:59:46;;;;;;;5.47;1.75;;;7.20;99.90;;;;;;5042154;28;20033;-84
2023/01/09 07:02:20;;;;;;;9.43;2.20;;;7.20;99.90;;;;;;5058895;28;20032;-85
2023/01/09 07:04:45;;;;;;;8.63;2.20;;;7.20;99.90;;;;;;5059114;28;20107;-83
2023/01/09 07:07:12;;;;;;;7.68;1.70;;;7.20;99.90;;;;;;5025690;28;20502;-85
2023/01/09 07:09:37;;;;;;;10.43;1.95;;;7.20;99.90;;;;;;5058829;28;20495;-84
2023/01/09 07:12:03;;;;;;;10.40;1.70;;;7.30;99.90;;;;;;5041493;28;20052;-84
2023/01/09 07:14:29;;;;;;;11.43;1.73;;;7.30;99.90;;;;;;5042081;28;20079;-85
2023/01/09 07:16:55;;;;;;;10.07;1.77;;;7.30;99.90;;;;;;5042179;28;20031;-85
2023/01/09 07:19:23;;;;;;;10.30;1.70;;;7.30;99.90;;;;;;5041913;28;20127;-85
2023/01/09 07:21:49;;;;;;;5.07;1.30;;;7.30;99.90;;;;;;5059175;28;20052;-85
2023/01/09 07:24:17;;;;;;;13.63;2.20;;;7.40;99.90;;;;;;5042073;28;20036;-91
2023/01/09 07:26:43;;;;;;;9.27;1.88;;;7.30;99.90;;;;;;5059080;28;20456;-85
2023/01/09 07:29:08;;;;;;;11.27;1.75;;;7.40;99.90;;;;;;5058523;28;20032;-85
2023/01/09 07:31:36;;;;;;;10.30;1.60;;;7.40;99.90;;;;;;5041898;28;20024;-85
2023/01/09 07:34:05;;;;;;;8.90;2.10;;;7.40;99.90;;;;;;5077337;28;20078;-90
2023/01/09 07:36:34;;;;;;;11.00;1.88;;;7.40;99.90;;;;;;5044045;28;20033;-90
2023/01/09 07:38:59;;;;;;;9.30;1.90;;;7.40;99.90;;;;;;5042246;28;20040;-85
2023/01/09 07:41:25;;;;;;;14.23;3.65;;;7.40;99.90;;;;;;5075952;28;20119;-86
2023/01/09 07:43:53;;;;;;;10.23;1.90;;;7.40;99.90;;;;;;5076819;28;20036;-90
2023/01/09 07:46:19;;;;;;;7.15;1.70;;;7.40;99.90;;;;;;5058325;28;20032;-86
2023/01/09 07:48:45;;;;;;;9.27;1.95;;;7.40;99.90;;;;;;5041939;28;20025;-85
2023/01/09 07:51:11;;;;;;;9.57;1.70;;;7.40;99.90;;;;;;5041223;28;20024;-86
2023/01/09 07:53:37;;;;;;;3.22;1.42;;;7.40;99.90;;;;;;5075715;28;20017;-84
2023/01/09 07:56:06;;;;;;;8.57;2.00;;;7.40;99.90;;;;;;5057386;28;20021;-84
2023/01/09 07:58:32;;;;;;;11.82;2.38;;;7.40;99.90;;;;;;5057317;28;20564;-84
2023/01/09 08:00:57;;;;;;;9.63;1.98;;;7.40;99.90;;;;;;5057798;28;20111;-85
2023/01/09 08:03:25;;;;;;;8.70;2.42;;;7.50;99.90;;;;;;5057537;28;20059;-85
2023/01/09 08:05:58;;;;;;;10.20;2.45;;;7.40;99.90;;;;;;5058091;28;20085;-89
2023/01/09 08:08:31;;;;;;;9.70;3.38;;;7.40;99.90;;;;;;5058557;28;20032;-92
2023/01/09 08:13:43;;;;;;;7.47;2.10;;;7.40;99.90;;;;;;5075862;28;20075;-85
2023/01/09 08:16:11;;;;;;;10.82;2.45;;;7.40;99.90;;;;;;5057510;28;20448;-86
2023/01/09 08:18:37;;;;;;;11.40;2.80;;;7.40;99.90;;;;;;5075237;28;20033;-84
2023/01/09 08:21:03;;;;;;;8.63;2.53;;;7.40;99.90;;;;;;5057455;28;20043;-84
2023/01/09 08:23:28;;;;;;;9.40;2.70;;;7.40;99.90;;;;;;5040212;28;20024;-84
2023/01/09 08:25:57;;;;;;;13.38;2.88;;;7.50;99.90;;;;;;5040689;28;20032;-83
2023/01/09 08:28:22;;;;;;;10.63;2.38;;;7.50;99.90;;;;;;5057010;28;20046;-83
2023/01/09 08:30:48;;;;;;;9.63;2.88;;;7.50;99.90;;;;;;5023778;28;20028;-84
2023/01/09 08:33:14;;;;;;;8.65;2.67;;;7.50;99.90;;;;;;5040187;28;20111;-84
2023/01/09 08:35:41;;;;;;;10.30;3.03;;;7.50;99.90;;;;;;5057031;28;20035;-84
2023/01/09 08:38:07;;;;;;;12.10;3.35;;;7.50;99.90;;;;;;5057097;28;20449;-84
2023/01/09 08:40:32;;;;;;;8.30;2.83;;;7.50;99.90;;;;;;5023737;28;20071;-84
2023/01/09 08:48:26;;;;;;;9.10;3.38;;;7.40;99.90;;;;;;5040294;28;20548;-86
2023/01/09 08:50:53;;;;;;;11.43;3.30;;;7.40;99.90;;;;;;5003698;28;20119;-85
2023/01/09 08:53:19;;;;;;;11.27;3.60;;;7.40;99.90;;;;;;5020568;28;20021;-84
2023/01/09 08:55:44;;;;;;;9.55;4.05;;;7.40;99.90;;;;;;5037638;28;20033;-85
2023/01/09 08:58:10;;;;;;;10.55;3.33;;;7.40;99.90;;;;;;5022975;28;20107;-86
2023/01/09 09:00:38;;;;;;;7.65;3.63;;;7.40;99.90;;;;;;5021667;28;20127;-86
2023/01/09 09:03:04;;;;;;;10.45;3.75;;;7.40;99.90;;;;;;5038515;28;20032;-85
2023/01/09 09:05:31;;;;;;;9.05;3.63;;;7.40;99.90;;;;;;5029628;28;20042;-86
2023/01/09 09:07:57;;;;;;;9.43;3.40;;;7.40;99.90;;;;;;5057033;28;20033;-85
2023/01/09 09:10:26;;;;;;;6.38;3.17;;;7.40;99.90;;;;;;5056092;28;20044;-86
2023/01/09 09:12:57;;;;;;;7.57;3.22;;;7.50;99.90;;;;;;5038922;28;20056;-86
2023/01/09 09:15:25;;;;;;;6.90;3.50;;;7.50;99.90;;;;;;5037181;28;20120;-84
2023/01/09 09:18:13;;;;;;;7.03;3.00;;;7.50;99.90;;;;;;5036954;28;20063;-84
2023/01/09 09:20:45;;;;;;;9.55;3.22;;;7.50;99.90;;;;;;5035241;28;20033;-84
2023/01/09 09:23:11;;;;;;;10.05;4.05;;;7.50;99.90;;;;;;5033789;28;20036;-84
2023/01/09 09:25:47;;;;;;;12.85;3.97;;;7.50;99.90;;;;;;5034506;28;20124;-83
2023/01/09 09:28:15;;;;;;;6.95;3.50;;;7.50;99.90;;;;;;5034360;28;20021;-84
2023/01/09 09:30:44;;;;;;;11.48;4.00;;;7.50;99.90;;;;;;5032576;28;20017;-84
2023/01/09 09:33:09;;;;;;;8.15;3.38;;;7.50;99.90;;;;;;5016744;28;20501;-84
2023/01/09 09:35:38;;;;;;;9.27;3.63;;;7.50;99.90;;;;;;5016492;28;20049;-84
2023/01/09 09:38:04;;;;;;;8.23;4.05;;;7.50;99.90;;;;;;5033294;28;20104;-84
2023/01/09 09:40:54;;;;;;;8.73;3.10;;;7.60;99.90;;;;;;5034527;28;20030;-85
2023/01/09 09:46:44;;;;;;;9.05;2.88;;;7.50;99.90;;;;;;5014945;28;20033;-86
2023/01/09 09:49:48;;;;;;;7.47;2.90;;;7.60;99.90;;;;;;5034274;28;20037;-85
2023/01/09 09:52:19;;;;;;;7.40;3.70;;;7.50;99.90;;;;;;5033867;28;20458;-86
2023/01/09 09:54:52;;;;;;;9.68;3.72;;;7.60;99.90;;;;;;5033536;28;20032;-86
2023/01/09 09:57:24;;;;;;;9.10;3.40;;;7.60;99.90;;;;;;5017853;28;20026;-85
2023/01/09 09:59:51;;;;;;;8.98;3.05;;;7.60;99.90;;;;;;5034391;28;20036;-85
2023/01/09 10:02:28;;;;;;;11.07;2.97;;;7.60;99.90;;;;;;5017418;28;20029;-85
2023/01/09 10:05:20;;;;;;;8.00;3.28;;;7.60;99.90;;;;;;5047251;28;20040;-86
2023/01/09 10:07:51;;;;;;;9.30;3.55;;;7.70;99.90;;;;;;5052264;28;20022;-86
2023/01/09 10:10:36;;;;;;;12.15;3.72;;;7.70;99.90;;;;;;5056738;28;20079;-84
2023/01/09 10:14:03;;;;;;;8.10;3.72;;;7.70;99.90;;;;;;5052534;28;20088;-84
2023/01/09 10:16:03;;;;;;;12.30;5.22;;;7.70;99.90;;;;;;5064661;28;20040;-87
2023/01/09 10:18:53;;;;;;;12.23;5.23;;;7.70;99.90;;;;;;5071682;28;20047;-87
2023/01/09 10:21:46;;;;;;;13.48;4.97;;;7.70;99.90;;;;;;5067483;28;20059;-86
2023/01/09 10:24:25;;;;;;;11.40;6.40;;;7.80;99.90;;;;;;5053600;28;20022;-85
2023/01/09 10:26:52;;;;;;;12.18;6.72;;;7.80;99.90;;;;;;5053220;28;20115;-86
2023/01/09 10:29:24;;;;;;;12.82;6.35;;;7.80;99.90;;;;;;5035739;28;20124;-86
2023/01/09 10:32:22;;;;;;;9.80;5.00;;;7.90;99.90;;;;;;5054380;28;20029;-85
2023/01/09 10:35:02;;;;;;;15.07;6.85;;;7.90;99.90;;;;;;5032583;28;20037;-85
2023/01/09 10:37:37;;;;;;;14.10;7.22;;;7.90;99.90;;;;;;5055212;28;20037;-86
2023/01/09 10:40:15;;;;;;;12.30;5.78;;;7.90;99.90;;;;;;5056650;28;20489;-85
2023/01/09 10:42:53;;;;;;;10.57;6.25;;;7.90;99.90;;;;;;5056089;28;20064;-86
2023/01/09 10:45:33;;;;;;;11.13;5.22;;;7.90;99.90;;;;;;5056649;28;20107;-87
2023/01/09 10:48:13;;;;;;;10.43;5.78;;;7.90;99.90;;;;;;5056601;28;20116;-85
2023/01/09 10:50:44;;;;;;;12.60;6.22;;;7.90;99.90;;;;;;5056059;28;20025;-85
2023/01/09 10:53:21;;;;;;;13.05;6.18;;;8.00;99.90;;;;;;5059503;28;20025;-86
2023/01/09 10:55:49;;;;;;;12.77;5.70;;;8.00;99.90;;;;;;5059368;28;20492;-85
2023/01/09 10:58:20;;;;;;;9.45;4.80;;;7.90;99.90;;;;;;5056298;28;20049;-87
2023/01/09 11:00:48;;;;;;;10.38;4.82;;;8.00;99.90;;;;;;5054866;28;20079;-85
2023/01/09 11:03:24;;;;;;;11.50;5.07;;;8.00;99.90;;;;;;5056229;28;20071;-85
2023/01/09 11:05:57;;;;;;;8.27;4.75;;;8.00;99.90;;;;;;5054955;28;20025;-86
2023/01/09 11:08:41;;;;;;;10.57;4.80;;;8.00;99.90;;;;;;5054496;28;20025;-86
2023/01/09 11:11:08;;;;;;;9.45;4.32;;;8.10;99.90;;;;;;5054907;28;20412;-86
2023/01/09 11:13:35;;;;;;;7.47;3.70;;;8.10;99.90;;;;;;5054858;28;20393;-84
2023/01/09 11:16:18;;;;;;;7.60;4.47;;;8.10;99.90;;;;;;5055750;28;20457;-85
2023/01/09 11:18:50;;;;;;;9.25;3.70;;;8.10;99.90;;;;;;5056777;28;20500;-85
2023/01/09 11:21:28;;;;;;;9.82;3.40;;;8.10;99.90;;;;;;5055517;28;20032;-84
2023/01/09 11:23:54;;;;;;;9.40;3.50;;;8.10;99.90;;;;;;5056746;28;20028;-85
2023/01/09 11:26:23;;;;;;;10.35;3.90;;;8.10;99.90;;;;;;5055707;28;20029;-86
2023/01/09 11:29:12;;;;;;;9.27;4.15;;;8.10;99.90;;;;;;5055417;28;20140;-86
2023/01/09 11:31:50;;;;;;;8.02;4.32;;;8.10;99.90;;;;;;5055903;28;20049;-85
2023/01/09 11:34:18;;;;;;;9.30;4.22;;;8.10;99.90;;;;;;5069513;28;20031;-84
2023/01/09 11:36:45;;;;;;;9.38;4.30;;;8.10;99.90;;;;;;5060514;28;20037;-85
2023/01/09 11:39:32;;;;;;;8.93;4.80;;;8.10;99.90;;;;;;5057874;28;20033;-85
2023/01/09 11:42:02;;;;;;;10.80;4.10;;;8.10;99.90;;;;;;5043156;28;20030;-84
2023/01/09 11:44:29;;;;;;;17.65;7.85;;;8.20;99.90;;;;;;5035010;28;20466;-84
2023/01/09 11:46:55;;;;;;;16.20;8.85;;;8.20;99.90;;;;;;5016651;28;20116;-85
2023/01/09 11:49:27;;;;;;;16.98;7.85;;;8.20;99.90;;;;;;5035036;28;20065;-86
2023/01/09 11:52:11;;;;;;;15.23;7.05;;;8.20;99.90;;;;;;5035224;28;20029;-85
2023/01/09 11:54:39;;;;;;;14.80;6.95;;;8.20;99.90;;;;;;5035276;28;20057;-86
2023/01/09 11:57:09;;;;;;;15.98;6.63;;;8.20;99.90;;;;;;5018729;28;20026;-83
2023/01/09 11:59:35;;;;;;;14.97;6.83;;;8.30;99.90;;;;;;5051070;28;20036;-84
2023/01/09 12:02:03;;;;;;;9.73;4.28;;;8.30;99.90;;;;;;5001430;28;20476;-84
2023/01/09 12:04:45;;;;;;;8.20;4.18;;;8.40;99.90;;;;;;5034447;28;20128;-85
2023/01/09 12:07:24;;;;;;;13.00;3.83;;;8.50;99.90;;;;;;5034517;28;20036;-84
2023/01/09 12:10:08;;;;;;;9.30;3.60;;;8.50;99.90;;;;;;5035732;28;20053;-85
2023/01/09 12:12:45;;;;;;;12.80;3.50;;;8.60;99.90;;;;;;5035946;28;20021;-84
2023/01/09 12:15:50;;;;;;;13.20;4.28;;;8.70;99.90;;;;;;5038033;28;20049;-84
2023/01/09 12:18:24;;;;;;;8.27;2.67;;;8.80;99.90;;;;;;5055404;28;20021;-84
2023/01/09 12:21:15;;;;;;;11.80;4.05;;;8.90;99.90;;;;;;5037280;28;20028;-84
2023/01/09 12:24:14;;;;;;;9.57;3.53;;;8.90;99.90;;;;;;5037400;28;20017;-84
2023/01/09 12:26:40;;;;;;;15.07;3.50;;;9.00;99.90;;;;;;5037246;28;20449;-84
2023/01/09 12:29:20;;;;;;;9.05;2.92;;;8.90;99.90;;;;;;5036840;28;20057;-83
2023/01/09 12:31:54;;;;;;;13.30;3.63;;;9.00;99.90;;;;;;5037080;28;20033;-84
2023/01/09 12:34:20;;;;;;;15.05;4.15;;;9.00;99.90;;;;;;5037656;28;20040;-85
2023/01/09 12:37:04;;;;;;;7.93;3.08;;;9.00;99.90;;;;;;5037150;28;20025;-85
2023/01/09 12:39:56;;;;;;;19.95;4.47;;;9.00;99.90;;;;;;5037588;28;20032;-85
2023/01/09 12:42:50;;;;;;;11.57;3.20;;;9.00;99.90;;;;;;5037392;28;20028;-85
2023/01/09 12:45:37;;;;;;;14.75;4.30;;;9.00;99.90;;;;;;5037167;28;20477;-85
2023/01/09 12:48:34;;;;;;;16.88;4.60;;;9.00;99.90;;;;;;5037037;28;20029;-85
2023/01/09 12:51:23;;;;;;;20.02;4.03;;;9.00;99.90;;;;;;5037121;28;20516;-85
2023/01/09 12:54:23;;;;;;;12.07;3.65;;;9.00;99.90;;;;;;5037832;28;20112;-85
2023/01/09 12:56:59;;;;;;;15.30;3.03;;;9.10;99.90;;;;;;5055122;28;20104;-85
2023/01/09 12:59:49;;;;;;;16.52;4.50;;;9.10;99.90;;;;;;5038127;28;20025;-86
2023/01/09 13:02:40;;;;;;;14.75;4.43;;;9.10;99.90;;;;;;5039559;28;20054;-85
2023/01/09 13:05:15;;;;;;;10.75;3.13;;;9.10;99.90;;;;;;5037426;28;20079;-85
2023/01/09 13:07:46;;;;;;;14.25;2.95;;;9.10;99.90;;;;;;5037112;28;20036;-85
2023/01/09 13:10:24;;;;;;;;;;;9.10;99.90;;;;;;5038069;28;20063;-85
2023/01/09 13:12:54;;;;;;;13.88;3.30;;;9.10;99.90;;;;;;5037094;28;20269;-84
2023/01/09 13:15:35;;;;;;;16.27;3.67;;;9.10;99.90;;;;;;5022219;28;20045;-84
2023/01/09 13:18:19;;;;;;;13.50;3.38;;;9.10;99.90;;;;;;5037684;28;20147;-86
2023/01/09 13:20:48;;;;;;;16.27;4.80;;;9.10;99.90;;;;;;5053818;28;20021;-86
2023/01/09 13:24:10;;;;;;;17.02;5.13;;;9.00;99.90;;;;;;5038094;28;20040;-84
2023/01/09 13:26:44;;;;;;;20.20;4.70;;;9.00;99.90;;;;;;4997029;28;20032;-84
2023/01/09 13:29:21;;;;;;;26.27;7.50;;;9.00;99.90;;;;;;5031601;28;20501;-84
2023/01/09 13:32:06;;;;;;;21.15;7.03;;;9.00;99.90;;;;;;5037155;28;20029;-85